Pioneer, California
Current Conditions -  °F | °C
As of 5:35 PM on Thursday 25 Dec 2014 (Local Time) from KPVF Reporting Station
Clear Clear  
Wind Chill: 36°   Ceiling: Unl
Heat Index: 39°   Visibility: 10mi
Dew Point: 28°   Wind: 5mph
Humidity: 65%   Direction: 350°N
Pressure: 30.04"   Gusts: NA
Location:  38.43°N, 120.57°W
Report Text: KPVF 260135Z AUTO 35004KT 10SM CLR 04/M02 A3004 RMK AO1
Loading
Personal Weather Stations






























Interactive Weather Map New forecast layout! Learn more

10-Day Weather Forecast

Advertisements
Track Severe Weather on mobile